createdAt,value
2022-12-31T00:01:07.022Z,0.40
2022-12-31T00:03:35.710Z,0.40
2022-12-31T00:06:14.285Z,0.40
2022-12-31T00:08:43.224Z,0.40
2022-12-31T00:11:11.619Z,0.40
2022-12-31T00:13:41.291Z,0.30
2022-12-31T00:16:12.416Z,0.40
2022-12-31T00:18:40.985Z,0.40
2022-12-31T00:21:10.105Z,0.40
2022-12-31T00:23:38.330Z,0.50
2022-12-31T00:26:08.226Z,0.40
2022-12-31T00:28:37.317Z,0.40
2022-12-31T00:31:08.880Z,0.43
2022-12-31T00:33:37.170Z,0.30
2022-12-31T00:36:07.291Z,0.40
2022-12-31T00:38:35.448Z,0.30
2022-12-31T00:41:03.579Z,0.50
2022-12-31T00:43:31.723Z,0.40
2022-12-31T00:46:00.114Z,0.40
2022-12-31T00:48:29.920Z,0.40
2022-12-31T00:50:58.840Z,0.40
2022-12-31T00:53:27.484Z,0.30
2022-12-31T00:56:01.244Z,0.37
2022-12-31T00:58:29.600Z,0.20
2022-12-31T01:00:58.213Z,0.40
2022-12-31T01:03:26.702Z,0.30
2022-12-31T01:06:00.002Z,0.27
2022-12-31T01:08:28.076Z,0.40
2022-12-31T01:11:13.409Z,0.30
2022-12-31T01:13:41.575Z,0.20
2022-12-31T01:16:10.478Z,0.40
2022-12-31T01:18:39.043Z,0.20
2022-12-31T01:21:09.980Z,0.30
2022-12-31T01:23:38.359Z,0.30
2022-12-31T01:26:08.787Z,0.40
2022-12-31T01:28:37.459Z,0.30
2022-12-31T01:31:06.889Z,0.30
2022-12-31T01:33:35.243Z,0.20
2022-12-31T01:36:04.474Z,0.30
2022-12-31T01:38:34.662Z,0.37
2022-12-31T01:41:03.457Z,0.20
2022-12-31T01:43:46.754Z,0.23
2022-12-31T01:46:20.505Z,0.30
2022-12-31T01:48:50.708Z,0.30
2022-12-31T01:51:19.294Z,0.27
2022-12-31T01:53:49.233Z,0.20
2022-12-31T01:56:17.636Z,0.30
2022-12-31T01:58:47.625Z,0.30
2022-12-31T02:01:20.353Z,0.20
2022-12-31T02:03:48.560Z,0.27
2022-12-31T02:06:20.266Z,0.40
2022-12-31T02:08:49.884Z,0.20
2022-12-31T02:11:29.199Z,0.20
2022-12-31T02:14:00.211Z,0.30
2022-12-31T02:16:35.484Z,0.40
2022-12-31T02:19:19.700Z,0.30
2022-12-31T02:21:54.501Z,0.33
2022-12-31T02:25:10.464Z,0.30
2022-12-31T02:27:50.509Z,0.20
2022-12-31T02:30:21.730Z,0.30
2022-12-31T02:32:55.803Z,0.30
2022-12-31T02:35:27.844Z,0.30
2022-12-31T02:38:03.239Z,0.30
2022-12-31T02:40:31.647Z,0.20
2022-12-31T02:42:59.904Z,0.37
2022-12-31T02:45:33.819Z,0.30
2022-12-31T02:48:24.963Z,0.20
2022-12-31T02:50:59.319Z,0.30
2022-12-31T02:53:47.155Z,0.40
2022-12-31T02:56:18.782Z,0.30
2022-12-31T02:59:28.186Z,0.30
2022-12-31T03:02:19.559Z,0.30
2022-12-31T03:04:51.719Z,0.27
2022-12-31T03:07:22.311Z,0.30
2022-12-31T03:09:50.775Z,0.40
2022-12-31T03:12:37.918Z,0.40
2022-12-31T03:15:19.945Z,0.40
2022-12-31T03:17:55.644Z,0.30
2022-12-31T03:20:43.629Z,0.20
2022-12-31T03:23:13.393Z,0.40
2022-12-31T03:25:40.564Z,0.40
2022-12-31T03:28:11.348Z,0.27
2022-12-31T03:30:41.414Z,0.30
2022-12-31T03:33:11.254Z,0.20
2022-12-31T03:35:41.136Z,0.30
2022-12-31T03:38:09.722Z,0.40
2022-12-31T03:40:40.850Z,0.30
2022-12-31T03:43:09.122Z,0.30
2022-12-31T03:45:37.509Z,0.30
2022-12-31T03:48:07.735Z,0.33
2022-12-31T03:50:37.907Z,0.30
2022-12-31T03:53:06.419Z,0.40
2022-12-31T03:55:34.586Z,0.30
2022-12-31T03:58:02.835Z,0.30
2022-12-31T04:00:31.152Z,0.30
2022-12-31T04:02:59.368Z,0.30
2022-12-31T04:05:27.619Z,0.30
2022-12-31T04:07:58.050Z,0.40
2022-12-31T04:10:26.168Z,0.40
2022-12-31T04:12:54.193Z,0.30
2022-12-31T04:15:22.606Z,0.20
2022-12-31T04:17:50.740Z,0.40
2022-12-31T04:20:21.123Z,0.40
2022-12-31T04:22:50.442Z,0.30
2022-12-31T04:25:20.146Z,0.20
2022-12-31T04:27:48.999Z,0.30
2022-12-31T04:30:17.177Z,0.33
2022-12-31T04:32:45.285Z,0.50
2022-12-31T04:35:13.391Z,0.47
2022-12-31T04:37:41.487Z,0.40
2022-12-31T04:40:10.629Z,0.47
2022-12-31T04:42:40.048Z,0.30
2022-12-31T04:45:09.211Z,0.40
2022-12-31T04:47:37.353Z,0.50
2022-12-31T04:50:06.502Z,0.30
2022-12-31T04:52:42.066Z,0.40
2022-12-31T04:55:11.000Z,0.40
2022-12-31T04:57:40.660Z,0.53
2022-12-31T05:00:09.991Z,0.60
2022-12-31T05:02:38.275Z,0.50
2022-12-31T05:05:07.269Z,0.70
2022-12-31T05:07:35.527Z,0.47
2022-12-31T05:10:03.543Z,0.70
2022-12-31T05:12:31.630Z,0.40
2022-12-31T05:15:01.026Z,0.53
2022-12-31T05:17:29.086Z,0.60
2022-12-31T05:19:57.143Z,0.60
2022-12-31T05:22:31.065Z,0.40
2022-12-31T05:24:59.874Z,0.60
2022-12-31T05:27:28.641Z,0.70
2022-12-31T05:29:56.701Z,0.50
2022-12-31T05:32:26.238Z,0.53
2022-12-31T05:34:54.608Z,0.57
2022-12-31T05:37:22.850Z,0.80
2022-12-31T05:39:50.921Z,0.50
2022-12-31T05:42:19.007Z,0.80
2022-12-31T05:44:47.163Z,0.60
2022-12-31T05:47:15.677Z,0.70
2022-12-31T05:49:45.141Z,1.00
2022-12-31T05:52:13.240Z,0.83
2022-12-31T05:54:41.490Z,0.70
2022-12-31T05:57:09.719Z,0.80
2022-12-31T05:59:38.706Z,0.70
2022-12-31T06:02:06.805Z,0.60
2022-12-31T06:04:35.450Z,0.77
2022-12-31T06:07:04.896Z,0.73
2022-12-31T06:09:33.016Z,0.60
2022-12-31T06:12:01.129Z,0.90
2022-12-31T06:14:29.280Z,0.70
2022-12-31T06:16:57.397Z,0.80
2022-12-31T06:19:25.649Z,0.80
2022-12-31T06:21:53.699Z,0.90
2022-12-31T06:24:24.374Z,1.00
2022-12-31T06:26:52.608Z,0.80
2022-12-31T06:29:20.773Z,0.70
2022-12-31T06:31:48.826Z,0.70
2022-12-31T06:34:17.519Z,0.70
2022-12-31T06:36:45.652Z,0.90
2022-12-31T06:39:13.720Z,0.63
2022-12-31T06:41:43.304Z,0.80
2022-12-31T06:44:11.479Z,0.80
2022-12-31T06:46:39.681Z,0.43
2022-12-31T06:49:07.835Z,0.90
2022-12-31T06:51:36.002Z,0.83
2022-12-31T06:54:04.093Z,0.77
2022-12-31T06:56:34.723Z,0.70
2022-12-31T06:59:05.409Z,0.80
2022-12-31T07:01:45.155Z,0.70
2022-12-31T07:04:46.184Z,0.80
2022-12-31T07:07:18.623Z,0.80
2022-12-31T07:09:53.060Z,0.63
2022-12-31T07:12:30.118Z,0.80
2022-12-31T07:15:06.677Z,0.60
2022-12-31T07:17:41.303Z,0.70
2022-12-31T07:20:11.748Z,0.80
2022-12-31T07:22:40.878Z,0.60
2022-12-31T07:25:13.952Z,0.70
2022-12-31T07:27:54.645Z,0.70
2022-12-31T07:30:27.000Z,0.90
2022-12-31T07:33:08.928Z,0.50
2022-12-31T07:35:46.568Z,0.80
2022-12-31T07:38:22.091Z,0.90
2022-12-31T07:41:10.071Z,0.80
2022-12-31T07:43:47.116Z,0.70
2022-12-31T07:46:22.672Z,0.80
2022-12-31T07:48:51.454Z,0.80
2022-12-31T07:51:20.131Z,0.90
2022-12-31T07:53:48.335Z,0.70
2022-12-31T07:56:16.426Z,0.90
2022-12-31T07:58:55.386Z,1.17
2022-12-31T08:01:32.415Z,1.00
2022-12-31T08:04:04.320Z,0.80
2022-12-31T08:06:38.217Z,1.30
2022-12-31T08:09:11.143Z,1.17
2022-12-31T08:11:42.945Z,1.10
2022-12-31T08:14:11.801Z,0.90
2022-12-31T08:16:41.985Z,1.07
2022-12-31T08:19:24.719Z,1.00
2022-12-31T08:22:10.722Z,1.00
2022-12-31T08:24:49.902Z,0.90
2022-12-31T08:27:24.609Z,0.90
2022-12-31T08:30:00.671Z,1.10
2022-12-31T08:32:35.794Z,0.80
2022-12-31T08:35:09.455Z,1.20
2022-12-31T08:37:39.784Z,1.00
2022-12-31T08:40:17.806Z,1.10
2022-12-31T08:42:56.765Z,1.00
2022-12-31T08:45:28.837Z,1.40
2022-12-31T08:48:02.765Z,0.90
2022-12-31T08:50:31.569Z,0.97
2022-12-31T08:53:00.739Z,1.00
2022-12-31T08:55:29.516Z,1.10
2022-12-31T08:58:09.687Z,1.07
2022-12-31T09:00:38.819Z,1.07
2022-12-31T09:03:20.746Z,1.17
2022-12-31T09:05:57.323Z,1.00
2022-12-31T09:08:33.234Z,1.67
2022-12-31T09:11:07.729Z,0.83
2022-12-31T09:13:43.160Z,1.10
2022-12-31T09:16:16.210Z,1.00
2022-12-31T09:18:46.792Z,0.90
2022-12-31T09:21:17.166Z,1.20
2022-12-31T09:23:45.849Z,1.00
2022-12-31T09:26:28.935Z,0.93
2022-12-31T09:29:03.054Z,1.20
2022-12-31T09:31:36.197Z,1.00
2022-12-31T09:34:09.670Z,1.37
2022-12-31T09:36:41.125Z,1.07
2022-12-31T09:39:14.564Z,1.00
2022-12-31T09:42:06.682Z,1.47
2022-12-31T09:45:14.236Z,1.27
2022-12-31T09:48:19.078Z,0.90
2022-12-31T09:51:01.410Z,0.93
2022-12-31T09:53:57.985Z,1.27
2022-12-31T09:56:29.204Z,1.10
2022-12-31T09:59:04.467Z,1.10
2022-12-31T10:01:40.041Z,1.10
2022-12-31T10:04:23.226Z,1.43
2022-12-31T10:07:01.938Z,1.03
2022-12-31T10:09:44.125Z,1.00
2022-12-31T10:12:45.825Z,1.07
2022-12-31T10:15:33.947Z,1.17
2022-12-31T10:18:08.627Z,1.10
2022-12-31T10:20:51.523Z,1.00
2022-12-31T10:23:47.861Z,1.20
2022-12-31T10:26:38.474Z,1.10
2022-12-31T10:29:16.233Z,1.20
2022-12-31T10:31:50.656Z,0.80
2022-12-31T10:34:25.815Z,1.07
2022-12-31T10:36:56.929Z,1.10
2022-12-31T10:39:54.960Z,1.00
2022-12-31T10:43:02.482Z,1.20
2022-12-31T10:46:06.569Z,1.00
2022-12-31T10:49:12.813Z,1.10
2022-12-31T10:51:54.019Z,1.27
2022-12-31T10:54:56.759Z,1.57
2022-12-31T10:57:43.602Z,1.30
2022-12-31T11:00:21.669Z,1.20
2022-12-31T11:03:35.480Z,1.17
2022-12-31T11:06:41.872Z,1.40
2022-12-31T11:09:46.574Z,1.30
2022-12-31T11:12:36.604Z,1.57
2022-12-31T11:15:26.374Z,1.30
2022-12-31T11:18:00.660Z,1.30
2022-12-31T11:20:45.926Z,1.40
2022-12-31T11:23:24.541Z,1.50
2022-12-31T11:26:03.141Z,1.50
2022-12-31T11:28:51.939Z,1.40
2022-12-31T11:31:32.795Z,1.20
2022-12-31T11:34:12.849Z,1.10
2022-12-31T11:36:46.025Z,1.40
2022-12-31T11:39:31.100Z,1.37
2022-12-31T11:42:04.899Z,1.43
2022-12-31T11:44:39.648Z,1.50
2022-12-31T11:47:22.534Z,1.13
2022-12-31T11:50:00.834Z,1.10
2022-12-31T11:52:40.772Z,1.30
2022-12-31T11:55:36.438Z,1.30
2022-12-31T11:58:13.767Z,1.40
2022-12-31T12:00:47.043Z,1.17
2022-12-31T12:03:16.643Z,1.40
2022-12-31T12:05:45.020Z,1.30
2022-12-31T12:08:13.492Z,1.10
2022-12-31T12:10:45.881Z,1.37
2022-12-31T12:13:20.065Z,1.33
2022-12-31T12:15:50.048Z,1.40
2022-12-31T12:18:26.930Z,1.20
2022-12-31T12:21:10.681Z,1.30
2022-12-31T12:23:39.748Z,1.30
2022-12-31T12:26:08.677Z,1.30
2022-12-31T12:28:45.534Z,1.40
2022-12-31T12:31:21.407Z,1.20
2022-12-31T12:33:52.452Z,1.20
2022-12-31T12:36:21.830Z,1.53
2022-12-31T12:38:50.089Z,1.17
2022-12-31T12:41:25.565Z,1.40
2022-12-31T12:44:03.590Z,1.20
2022-12-31T12:46:33.487Z,1.33
2022-12-31T12:49:04.299Z,1.10
2022-12-31T12:51:48.845Z,1.03
2022-12-31T12:54:27.822Z,1.17
2022-12-31T12:57:03.010Z,1.20
2022-12-31T12:59:50.900Z,1.50
2022-12-31T13:02:36.798Z,1.20
2022-12-31T13:05:20.542Z,1.17
2022-12-31T13:07:59.208Z,1.20
2022-12-31T13:10:38.871Z,1.20
2022-12-31T13:13:29.355Z,1.20
2022-12-31T13:16:03.203Z,1.20
2022-12-31T13:18:42.004Z,1.20
2022-12-31T13:21:23.155Z,1.17
2022-12-31T13:24:03.223Z,1.10
2022-12-31T13:26:35.643Z,1.27
2022-12-31T13:29:05.653Z,1.10
2022-12-31T13:31:36.694Z,1.13
2022-12-31T13:34:07.679Z,1.10
2022-12-31T13:36:39.899Z,1.30
2022-12-31T13:39:13.901Z,1.27
2022-12-31T13:41:46.349Z,1.20
2022-12-31T13:44:18.326Z,1.20
2022-12-31T13:46:48.835Z,1.30
2022-12-31T13:49:20.351Z,1.20
2022-12-31T13:51:52.762Z,1.53
2022-12-31T13:54:30.586Z,1.47
2022-12-31T13:57:04.783Z,1.10
2022-12-31T13:59:36.612Z,1.10
2022-12-31T14:02:10.084Z,1.80
2022-12-31T14:04:41.393Z,1.70
2022-12-31T14:07:16.053Z,1.80
2022-12-31T14:09:46.866Z,1.60
2022-12-31T14:12:23.817Z,1.37
2022-12-31T14:14:58.402Z,1.10
2022-12-31T14:17:30.815Z,1.50
2022-12-31T14:20:05.255Z,1.30
2022-12-31T14:22:41.396Z,1.60
2022-12-31T14:25:17.777Z,1.17
2022-12-31T14:27:47.994Z,1.33
2022-12-31T14:30:18.219Z,1.33
2022-12-31T14:33:06.054Z,1.10
2022-12-31T14:35:40.785Z,1.30
2022-12-31T14:38:20.053Z,1.50
2022-12-31T14:40:55.381Z,1.13
2022-12-31T14:43:29.572Z,1.40
2022-12-31T14:46:10.470Z,1.40
2022-12-31T14:48:46.891Z,1.53
2022-12-31T14:51:16.386Z,1.50
2022-12-31T14:53:54.681Z,1.30
2022-12-31T14:56:29.525Z,1.30
2022-12-31T14:58:59.454Z,1.50
2022-12-31T15:01:27.662Z,1.27
2022-12-31T15:03:58.181Z,1.40
2022-12-31T15:06:39.953Z,1.23
2022-12-31T15:09:18.011Z,1.53
2022-12-31T15:12:07.492Z,1.70
2022-12-31T15:15:05.306Z,1.20
2022-12-31T15:17:41.611Z,1.50
2022-12-31T15:20:19.531Z,1.10
2022-12-31T15:22:48.728Z,1.60
2022-12-31T15:25:28.479Z,1.70
2022-12-31T15:27:58.268Z,1.43
2022-12-31T15:30:34.269Z,1.30
2022-12-31T15:33:04.656Z,1.20
2022-12-31T15:35:45.058Z,1.60
2022-12-31T15:38:36.124Z,1.40
2022-12-31T15:41:36.339Z,1.40
2022-12-31T15:44:09.975Z,1.40
2022-12-31T15:46:39.960Z,1.53
2022-12-31T15:49:15.836Z,1.70
2022-12-31T15:51:47.623Z,1.40
2022-12-31T15:54:24.107Z,1.30
2022-12-31T15:56:54.512Z,1.37
2022-12-31T15:59:23.875Z,1.40
2022-12-31T16:01:52.170Z,1.20
2022-12-31T16:04:22.259Z,1.47
2022-12-31T16:06:51.955Z,1.50
2022-12-31T16:09:23.631Z,1.50
2022-12-31T16:11:54.691Z,1.30
2022-12-31T16:14:25.102Z,1.50
2022-12-31T16:16:56.198Z,1.47
2022-12-31T16:19:29.775Z,1.60
2022-12-31T16:21:58.985Z,1.70
2022-12-31T16:24:30.704Z,1.90
2022-12-31T16:27:02.666Z,1.63
2022-12-31T16:29:31.860Z,1.60
2022-12-31T16:31:59.990Z,1.73
2022-12-31T16:34:29.064Z,1.47
2022-12-31T16:36:58.933Z,1.60
2022-12-31T16:39:32.048Z,1.60
2022-12-31T16:42:20.551Z,1.60
2022-12-31T16:44:49.358Z,1.27
2022-12-31T16:47:20.757Z,1.53
2022-12-31T16:49:51.443Z,1.57
2022-12-31T16:52:27.876Z,1.50
2022-12-31T16:54:56.976Z,1.47
2022-12-31T16:57:30.156Z,1.50
2022-12-31T17:00:00.952Z,1.70
2022-12-31T17:02:34.407Z,1.80
2022-12-31T17:05:03.358Z,1.70
2022-12-31T17:07:41.463Z,1.50
2022-12-31T17:10:21.455Z,1.70
2022-12-31T17:15:44.523Z,1.60
2022-12-31T17:18:16.278Z,1.83
2022-12-31T17:20:44.442Z,1.43
2022-12-31T17:23:25.580Z,1.87
2022-12-31T17:26:01.054Z,1.50
2022-12-31T17:28:34.215Z,1.60
2022-12-31T17:31:03.097Z,1.70
2022-12-31T17:33:32.256Z,1.40
2022-12-31T17:36:22.393Z,1.60
2022-12-31T17:38:51.239Z,1.57
2022-12-31T17:41:29.010Z,1.50
2022-12-31T17:43:58.816Z,1.77
2022-12-31T17:46:27.318Z,1.90
2022-12-31T17:49:00.691Z,1.53
2022-12-31T17:51:28.832Z,1.70
2022-12-31T17:53:56.937Z,1.73
2022-12-31T17:56:25.043Z,1.80
2022-12-31T17:58:54.863Z,1.80
2022-12-31T18:01:24.846Z,1.50
2022-12-31T18:03:53.037Z,1.97
2022-12-31T18:06:21.153Z,1.80
2022-12-31T18:08:49.370Z,1.50
2022-12-31T18:11:19.661Z,1.30
2022-12-31T18:13:48.123Z,1.40
2022-12-31T18:16:16.656Z,1.70
2022-12-31T18:18:46.248Z,2.00
2022-12-31T18:21:19.549Z,1.90
2022-12-31T18:23:48.832Z,1.50
2022-12-31T18:26:19.248Z,1.87
2022-12-31T18:28:47.661Z,1.93
2022-12-31T18:31:18.326Z,1.50
2022-12-31T18:33:48.011Z,1.73
2022-12-31T18:36:17.471Z,1.80
2022-12-31T18:38:45.757Z,1.67
2022-12-31T18:41:17.872Z,1.93
2022-12-31T18:43:46.294Z,1.67
2022-12-31T18:46:15.681Z,1.87
2022-12-31T18:48:44.277Z,2.10
2022-12-31T18:51:16.563Z,2.20
2022-12-31T18:53:44.896Z,1.83
2022-12-31T18:56:15.085Z,1.80
2022-12-31T18:58:44.009Z,2.03
2022-12-31T19:01:27.008Z,2.23
2022-12-31T19:03:56.133Z,1.97
2022-12-31T19:06:26.270Z,1.57
2022-12-31T19:08:54.816Z,1.33
2022-12-31T19:11:23.575Z,1.93
2022-12-31T19:13:52.041Z,1.50
2022-12-31T19:16:20.193Z,2.13
2022-12-31T19:18:49.562Z,1.70
2022-12-31T19:21:19.172Z,1.60
2022-12-31T19:23:48.717Z,1.60
2022-12-31T19:26:18.980Z,2.10
2022-12-31T19:28:48.228Z,1.50
2022-12-31T19:31:17.103Z,1.80
2022-12-31T19:33:45.335Z,1.80
2022-12-31T19:36:16.239Z,2.30
2022-12-31T19:38:44.815Z,1.63
2022-12-31T19:41:17.886Z,2.10
2022-12-31T19:43:46.349Z,1.57
2022-12-31T19:46:15.443Z,1.73
2022-12-31T19:48:43.611Z,1.93
2022-12-31T19:51:13.093Z,1.60
2022-12-31T19:53:41.246Z,1.50
2022-12-31T19:56:12.698Z,1.83
2022-12-31T19:58:42.414Z,1.97
2022-12-31T20:01:19.236Z,1.93
2022-12-31T20:03:47.393Z,1.80
2022-12-31T20:06:16.173Z,1.80
2022-12-31T20:08:44.361Z,2.20
2022-12-31T20:11:14.194Z,1.87
2022-12-31T20:13:44.094Z,1.77
2022-12-31T20:16:14.987Z,2.10
2022-12-31T20:18:45.875Z,1.90
2022-12-31T20:21:15.499Z,2.30
2022-12-31T20:23:43.686Z,1.90
2022-12-31T20:26:13.718Z,1.77
2022-12-31T20:28:43.249Z,1.90
2022-12-31T20:31:13.139Z,1.90
2022-12-31T20:33:41.584Z,1.60
2022-12-31T20:36:11.656Z,2.10
2022-12-31T20:38:39.685Z,1.87
2022-12-31T20:41:09.717Z,1.90
2022-12-31T20:43:38.333Z,1.93
2022-12-31T20:46:15.437Z,1.70
2022-12-31T20:48:44.269Z,2.30
2022-12-31T20:51:12.688Z,2.60
2022-12-31T20:53:41.156Z,1.87
2022-12-31T20:56:10.367Z,1.70
2022-12-31T20:58:38.953Z,1.60
2022-12-31T21:01:08.768Z,1.90
2022-12-31T21:06:28.316Z,3.30
2022-12-31T21:08:56.841Z,2.40
2022-12-31T21:11:42.310Z,2.47
2022-12-31T21:14:10.423Z,2.53
2022-12-31T21:16:38.663Z,2.77
2022-12-31T21:19:08.239Z,3.43
2022-12-31T21:21:36.563Z,2.87
2022-12-31T21:24:05.062Z,3.07
2022-12-31T21:26:33.131Z,2.43
2022-12-31T21:29:01.667Z,2.60
2022-12-31T21:31:29.845Z,3.27
2022-12-31T21:33:58.091Z,4.00
2022-12-31T21:36:27.612Z,3.13
2022-12-31T21:38:55.728Z,1.90
2022-12-31T21:41:41.263Z,1.93
2022-12-31T21:44:09.535Z,1.87
2022-12-31T21:46:37.839Z,1.80
2022-12-31T21:49:06.493Z,1.80
2022-12-31T21:51:56.889Z,1.77
2022-12-31T21:54:38.989Z,1.57
2022-12-31T21:57:08.424Z,2.23
2022-12-31T22:00:23.962Z,1.67
2022-12-31T22:03:00.141Z,1.93
2022-12-31T22:05:28.563Z,1.70
2022-12-31T22:07:58.105Z,1.90
2022-12-31T22:10:26.336Z,1.83
2022-12-31T22:12:54.606Z,2.03
2022-12-31T22:15:22.925Z,1.70
2022-12-31T22:17:50.945Z,1.83
2022-12-31T22:20:28.243Z,1.80
2022-12-31T22:23:00.824Z,1.90
2022-12-31T22:25:29.062Z,1.47
2022-12-31T22:28:36.133Z,2.03
2022-12-31T22:30:47.980Z,1.67
2022-12-31T22:33:16.143Z,1.73
2022-12-31T22:35:44.271Z,1.73
2022-12-31T22:38:13.729Z,1.87
2022-12-31T22:40:41.827Z,1.80
2022-12-31T22:43:10.002Z,1.83
2022-12-31T22:45:38.421Z,2.20
2022-12-31T22:48:06.962Z,1.83
2022-12-31T22:50:35.077Z,2.00
2022-12-31T22:53:03.190Z,3.17
2022-12-31T22:55:32.826Z,1.90
2022-12-31T22:58:01.016Z,1.90
2022-12-31T23:00:39.850Z,19.33
2022-12-31T23:03:08.289Z,71.97
2022-12-31T23:05:36.508Z,124.73
2022-12-31T23:08:15.632Z,224.00
2022-12-31T23:11:05.917Z,33.70
2022-12-31T23:13:56.228Z,26.37
2022-12-31T23:16:42.788Z,31.97
2022-12-31T23:19:28.921Z,34.17
2022-12-31T23:22:14.762Z,32.30
2022-12-31T23:24:43.062Z,20.77
2022-12-31T23:27:13.278Z,13.40
2022-12-31T23:29:47.095Z,13.30
2022-12-31T23:32:16.350Z,12.23
2022-12-31T23:34:45.425Z,9.27
2022-12-31T23:37:13.989Z,8.73
2022-12-31T23:39:42.761Z,8.63
2022-12-31T23:42:12.320Z,7.83
2022-12-31T23:44:40.382Z,7.07
2022-12-31T23:47:08.713Z,6.93
2022-12-31T23:49:37.008Z,6.30
2022-12-31T23:52:05.396Z,5.87
2022-12-31T23:54:35.127Z,5.13
2022-12-31T23:57:03.229Z,4.87
2022-12-31T23:59:32.745Z,4.20
